sensor_id;sensor_type;location;lat;lon;timestamp;P1;durP1;ratioP1;P2;durP2;ratioP2
84623;SDS011;74849;51.340;12.610;2023-12-20T00:00:36;5.10;;;3.20;;
84623;SDS011;74849;51.340;12.610;2023-12-20T00:03:05;3.80;;;2.58;;
84623;SDS011;74849;51.340;12.610;2023-12-20T00:05:32;4.50;;;2.55;;
84623;SDS011;74849;51.340;12.610;2023-12-20T00:08:01;5.45;;;2.53;;
84623;SDS011;74849;51.340;12.610;2023-12-20T00:10:28;5.70;;;2.75;;
84623;SDS011;74849;51.340;12.610;2023-12-20T00:12:55;6.03;;;3.25;;
84623;SDS011;74849;51.340;12.610;2023-12-20T00:15:21;3.95;;;2.25;;
84623;SDS011;74849;51.340;12.610;2023-12-20T00:17:48;5.38;;;2.65;;
84623;SDS011;74849;51.340;12.610;2023-12-20T00:20:15;4.50;;;2.55;;
84623;SDS011;74849;51.340;12.610;2023-12-20T00:22:42;4.20;;;2.78;;
84623;SDS011;74849;51.340;12.610;2023-12-20T00:25:09;5.38;;;2.30;;
84623;SDS011;74849;51.340;12.610;2023-12-20T00:27:36;3.90;;;2.53;;
84623;SDS011;74849;51.340;12.610;2023-12-20T00:30:03;3.67;;;2.15;;
84623;SDS011;74849;51.340;12.610;2023-12-20T00:32:30;4.28;;;2.17;;
84623;SDS011;74849;51.340;12.610;2023-12-20T00:34:57;3.75;;;2.20;;
84623;SDS011;74849;51.340;12.610;2023-12-20T00:37:24;3.90;;;2.05;;
84623;SDS011;74849;51.340;12.610;2023-12-20T00:39:51;4.45;;;2.30;;
84623;SDS011;74849;51.340;12.610;2023-12-20T00:42:18;3.85;;;2.13;;
84623;SDS011;74849;51.340;12.610;2023-12-20T00:44:46;2.95;;;1.88;;
84623;SDS011;74849;51.340;12.610;2023-12-20T00:47:13;3.90;;;1.58;;
84623;SDS011;74849;51.340;12.610;2023-12-20T00:49:40;3.35;;;1.83;;
84623;SDS011;74849;51.340;12.610;2023-12-20T00:52:07;3.25;;;1.60;;
84623;SDS011;74849;51.340;12.610;2023-12-20T00:54:33;3.47;;;1.65;;
84623;SDS011;74849;51.340;12.610;2023-12-20T00:57:00;1.75;;;1.13;;
84623;SDS011;74849;51.340;12.610;2023-12-20T00:59:27;2.08;;;1.33;;
84623;SDS011;74849;51.340;12.610;2023-12-20T01:01:54;2.47;;;1.35;;
84623;SDS011;74849;51.340;12.610;2023-12-20T01:04:21;2.75;;;1.30;;
84623;SDS011;74849;51.340;12.610;2023-12-20T01:06:48;2.05;;;1.13;;
84623;SDS011;74849;51.340;12.610;2023-12-20T01:09:15;1.80;;;1.08;;
84623;SDS011;74849;51.340;12.610;2023-12-20T01:11:42;2.85;;;1.50;;
84623;SDS011;74849;51.340;12.610;2023-12-20T01:14:09;2.28;;;1.25;;
84623;SDS011;74849;51.340;12.610;2023-12-20T01:16:36;2.60;;;1.70;;
84623;SDS011;74849;51.340;12.610;2023-12-20T01:19:03;2.15;;;1.45;;
84623;SDS011;74849;51.340;12.610;2023-12-20T01:21:30;3.10;;;1.27;;
84623;SDS011;74849;51.340;12.610;2023-12-20T01:23:57;2.10;;;1.13;;
84623;SDS011;74849;51.340;12.610;2023-12-20T01:26:24;2.45;;;1.10;;
84623;SDS011;74849;51.340;12.610;2023-12-20T01:28:51;1.92;;;1.10;;
84623;SDS011;74849;51.340;12.610;2023-12-20T01:31:17;2.22;;;1.10;;
84623;SDS011;74849;51.340;12.610;2023-12-20T01:33:45;2.28;;;1.25;;
84623;SDS011;74849;51.340;12.610;2023-12-20T01:36:11;2.08;;;1.20;;
84623;SDS011;74849;51.340;12.610;2023-12-20T01:38:38;1.73;;;1.00;;
84623;SDS011;74849;51.340;12.610;2023-12-20T01:41:05;2.25;;;1.20;;
84623;SDS011;74849;51.340;12.610;2023-12-20T01:43:32;2.42;;;1.33;;
84623;SDS011;74849;51.340;12.610;2023-12-20T01:45:59;2.50;;;1.33;;
84623;SDS011;74849;51.340;12.610;2023-12-20T01:48:26;2.45;;;1.00;;
84623;SDS011;74849;51.340;12.610;2023-12-20T01:50:54;2.50;;;1.42;;
84623;SDS011;74849;51.340;12.610;2023-12-20T01:53:21;1.92;;;0.98;;
84623;SDS011;74849;51.340;12.610;2023-12-20T01:55:50;2.50;;;1.20;;
84623;SDS011;74849;51.340;12.610;2023-12-20T01:58:20;1.67;;;1.17;;
84623;SDS011;74849;51.340;12.610;2023-12-20T02:00:48;2.30;;;1.20;;
84623;SDS011;74849;51.340;12.610;2023-12-20T02:03:15;2.10;;;1.20;;
84623;SDS011;74849;51.340;12.610;2023-12-20T02:05:42;1.77;;;0.73;;
84623;SDS011;74849;51.340;12.610;2023-12-20T02:08:09;1.88;;;0.95;;
84623;SDS011;74849;51.340;12.610;2023-12-20T02:10:36;3.40;;;1.17;;
84623;SDS011;74849;51.340;12.610;2023-12-20T02:13:03;2.03;;;1.38;;
84623;SDS011;74849;51.340;12.610;2023-12-20T02:15:31;2.15;;;1.25;;
84623;SDS011;74849;51.340;12.610;2023-12-20T02:17:57;1.70;;;0.80;;
84623;SDS011;74849;51.340;12.610;2023-12-20T02:20:25;1.23;;;0.90;;
84623;SDS011;74849;51.340;12.610;2023-12-20T02:22:52;3.00;;;1.30;;
84623;SDS011;74849;51.340;12.610;2023-12-20T02:25:18;5.00;;;1.20;;
84623;SDS011;74849;51.340;12.610;2023-12-20T02:27:45;2.47;;;1.15;;
84623;SDS011;74849;51.340;12.610;2023-12-20T02:30:14;2.00;;;1.20;;
84623;SDS011;74849;51.340;12.610;2023-12-20T02:32:41;1.90;;;0.98;;
84623;SDS011;74849;51.340;12.610;2023-12-20T02:35:08;2.22;;;0.85;;
84623;SDS011;74849;51.340;12.610;2023-12-20T02:37:35;2.35;;;0.93;;
84623;SDS011;74849;51.340;12.610;2023-12-20T02:40:02;2.88;;;1.23;;
84623;SDS011;74849;51.340;12.610;2023-12-20T02:42:30;1.77;;;1.00;;
84623;SDS011;74849;51.340;12.610;2023-12-20T02:44:57;2.60;;;0.98;;
84623;SDS011;74849;51.340;12.610;2023-12-20T02:47:24;2.17;;;1.33;;
84623;SDS011;74849;51.340;12.610;2023-12-20T02:49:50;1.75;;;0.98;;
84623;SDS011;74849;51.340;12.610;2023-12-20T02:52:18;2.65;;;0.93;;
84623;SDS011;74849;51.340;12.610;2023-12-20T02:54:45;1.85;;;0.73;;
84623;SDS011;74849;51.340;12.610;2023-12-20T02:57:12;1.98;;;1.13;;
84623;SDS011;74849;51.340;12.610;2023-12-20T02:59:39;2.03;;;0.90;;
84623;SDS011;74849;51.340;12.610;2023-12-20T03:02:06;1.95;;;0.98;;
84623;SDS011;74849;51.340;12.610;2023-12-20T03:04:33;1.88;;;1.20;;
84623;SDS011;74849;51.340;12.610;2023-12-20T03:06:59;2.55;;;1.40;;
84623;SDS011;74849;51.340;12.610;2023-12-20T03:09:26;1.73;;;1.10;;
84623;SDS011;74849;51.340;12.610;2023-12-20T03:11:53;3.05;;;1.17;;
84623;SDS011;74849;51.340;12.610;2023-12-20T03:14:20;2.13;;;1.23;;
84623;SDS011;74849;51.340;12.610;2023-12-20T03:16:49;2.15;;;1.23;;
84623;SDS011;74849;51.340;12.610;2023-12-20T03:19:17;2.22;;;1.17;;
84623;SDS011;74849;51.340;12.610;2023-12-20T03:21:45;2.35;;;1.30;;
84623;SDS011;74849;51.340;12.610;2023-12-20T03:24:12;2.80;;;1.42;;
84623;SDS011;74849;51.340;12.610;2023-12-20T03:26:39;2.40;;;1.15;;
84623;SDS011;74849;51.340;12.610;2023-12-20T03:29:05;2.53;;;1.20;;
84623;SDS011;74849;51.340;12.610;2023-12-20T03:31:32;2.20;;;1.30;;
84623;SDS011;74849;51.340;12.610;2023-12-20T03:33:59;2.70;;;1.45;;
84623;SDS011;74849;51.340;12.610;2023-12-20T03:36:26;2.42;;;1.50;;
84623;SDS011;74849;51.340;12.610;2023-12-20T03:38:53;2.45;;;1.27;;
84623;SDS011;74849;51.340;12.610;2023-12-20T03:41:20;2.80;;;1.20;;
84623;SDS011;74849;51.340;12.610;2023-12-20T03:43:47;2.50;;;1.55;;
84623;SDS011;74849;51.340;12.610;2023-12-20T03:46:13;1.60;;;0.88;;
84623;SDS011;74849;51.340;12.610;2023-12-20T03:48:40;2.90;;;1.20;;
84623;SDS011;74849;51.340;12.610;2023-12-20T03:51:07;1.63;;;0.90;;
84623;SDS011;74849;51.340;12.610;2023-12-20T03:53:34;2.50;;;1.40;;
84623;SDS011;74849;51.340;12.610;2023-12-20T03:56:01;2.60;;;1.30;;
84623;SDS011;74849;51.340;12.610;2023-12-20T03:58:28;2.58;;;1.10;;
84623;SDS011;74849;51.340;12.610;2023-12-20T04:00:55;2.55;;;1.38;;
84623;SDS011;74849;51.340;12.610;2023-12-20T04:03:22;1.88;;;1.08;;
84623;SDS011;74849;51.340;12.610;2023-12-20T04:05:48;3.08;;;1.40;;
84623;SDS011;74849;51.340;12.610;2023-12-20T04:08:15;2.15;;;1.25;;
84623;SDS011;74849;51.340;12.610;2023-12-20T04:10:42;3.00;;;1.25;;
84623;SDS011;74849;51.340;12.610;2023-12-20T04:13:09;2.63;;;1.60;;
84623;SDS011;74849;51.340;12.610;2023-12-20T04:15:36;2.95;;;1.63;;
84623;SDS011;74849;51.340;12.610;2023-12-20T04:18:03;2.35;;;1.27;;
84623;SDS011;74849;51.340;12.610;2023-12-20T04:20:30;3.13;;;1.50;;
84623;SDS011;74849;51.340;12.610;2023-12-20T04:22:57;2.25;;;1.40;;
84623;SDS011;74849;51.340;12.610;2023-12-20T04:25:24;2.90;;;1.35;;
84623;SDS011;74849;51.340;12.610;2023-12-20T04:27:50;3.33;;;1.90;;
84623;SDS011;74849;51.340;12.610;2023-12-20T04:30:17;2.60;;;1.67;;
84623;SDS011;74849;51.340;12.610;2023-12-20T04:32:44;3.63;;;2.03;;
84623;SDS011;74849;51.340;12.610;2023-12-20T04:35:11;2.60;;;1.55;;
84623;SDS011;74849;51.340;12.610;2023-12-20T04:37:38;5.13;;;2.08;;
84623;SDS011;74849;51.340;12.610;2023-12-20T04:40:05;3.65;;;1.95;;
84623;SDS011;74849;51.340;12.610;2023-12-20T04:42:33;3.72;;;2.15;;
84623;SDS011;74849;51.340;12.610;2023-12-20T04:45:00;3.80;;;2.10;;
84623;SDS011;74849;51.340;12.610;2023-12-20T04:47:27;3.90;;;2.55;;
84623;SDS011;74849;51.340;12.610;2023-12-20T04:49:54;3.47;;;2.17;;
84623;SDS011;74849;51.340;12.610;2023-12-20T04:52:22;3.60;;;2.45;;
84623;SDS011;74849;51.340;12.610;2023-12-20T04:54:49;3.53;;;1.95;;
84623;SDS011;74849;51.340;12.610;2023-12-20T04:57:15;4.53;;;2.72;;
84623;SDS011;74849;51.340;12.610;2023-12-20T04:59:42;4.22;;;2.50;;
84623;SDS011;74849;51.340;12.610;2023-12-20T05:02:09;3.08;;;1.90;;
84623;SDS011;74849;51.340;12.610;2023-12-20T05:04:37;5.35;;;2.42;;
84623;SDS011;74849;51.340;12.610;2023-12-20T05:07:04;5.65;;;3.45;;
84623;SDS011;74849;51.340;12.610;2023-12-20T05:09:31;4.15;;;2.20;;
84623;SDS011;74849;51.340;12.610;2023-12-20T05:11:58;5.97;;;2.95;;
84623;SDS011;74849;51.340;12.610;2023-12-20T05:14:25;3.72;;;2.22;;
84623;SDS011;74849;51.340;12.610;2023-12-20T05:16:51;5.20;;;3.40;;
84623;SDS011;74849;51.340;12.610;2023-12-20T05:19:18;5.18;;;3.25;;
84623;SDS011;74849;51.340;12.610;2023-12-20T05:21:45;7.30;;;3.88;;
84623;SDS011;74849;51.340;12.610;2023-12-20T05:24:12;4.03;;;2.35;;
84623;SDS011;74849;51.340;12.610;2023-12-20T05:26:39;6.55;;;3.28;;
84623;SDS011;74849;51.340;12.610;2023-12-20T05:29:06;7.63;;;3.33;;
84623;SDS011;74849;51.340;12.610;2023-12-20T05:31:33;6.22;;;3.08;;
84623;SDS011;74849;51.340;12.610;2023-12-20T05:34:00;4.97;;;2.80;;
84623;SDS011;74849;51.340;12.610;2023-12-20T05:36:26;5.63;;;3.53;;
84623;SDS011;74849;51.340;12.610;2023-12-20T05:38:54;6.43;;;3.70;;
84623;SDS011;74849;51.340;12.610;2023-12-20T05:41:21;4.97;;;3.03;;
84623;SDS011;74849;51.340;12.610;2023-12-20T05:43:48;7.57;;;4.15;;
84623;SDS011;74849;51.340;12.610;2023-12-20T05:46:15;7.57;;;4.60;;
84623;SDS011;74849;51.340;12.610;2023-12-20T05:48:42;6.40;;;3.65;;
84623;SDS011;74849;51.340;12.610;2023-12-20T05:51:11;7.25;;;3.97;;
84623;SDS011;74849;51.340;12.610;2023-12-20T05:53:38;7.05;;;4.45;;
84623;SDS011;74849;51.340;12.610;2023-12-20T05:56:05;8.27;;;4.40;;
84623;SDS011;74849;51.340;12.610;2023-12-20T05:58:32;8.73;;;5.13;;
84623;SDS011;74849;51.340;12.610;2023-12-20T06:00:59;7.38;;;4.68;;
84623;SDS011;74849;51.340;12.610;2023-12-20T06:03:26;9.65;;;4.90;;
84623;SDS011;74849;51.340;12.610;2023-12-20T06:05:53;6.05;;;4.03;;
84623;SDS011;74849;51.340;12.610;2023-12-20T06:08:20;6.63;;;4.10;;
84623;SDS011;74849;51.340;12.610;2023-12-20T06:10:48;7.90;;;4.28;;
84623;SDS011;74849;51.340;12.610;2023-12-20T06:13:15;7.72;;;4.40;;
84623;SDS011;74849;51.340;12.610;2023-12-20T06:15:42;6.88;;;3.92;;
84623;SDS011;74849;51.340;12.610;2023-12-20T06:18:08;7.22;;;4.15;;
84623;SDS011;74849;51.340;12.610;2023-12-20T06:20:35;7.65;;;4.05;;
84623;SDS011;74849;51.340;12.610;2023-12-20T06:23:02;8.07;;;4.05;;
84623;SDS011;74849;51.340;12.610;2023-12-20T06:25:29;7.10;;;4.05;;
84623;SDS011;74849;51.340;12.610;2023-12-20T06:27:56;7.53;;;4.88;;
84623;SDS011;74849;51.340;12.610;2023-12-20T06:30:23;7.25;;;4.05;;
84623;SDS011;74849;51.340;12.610;2023-12-20T06:32:51;6.30;;;3.72;;
84623;SDS011;74849;51.340;12.610;2023-12-20T06:35:18;6.82;;;3.60;;
84623;SDS011;74849;51.340;12.610;2023-12-20T06:37:45;6.05;;;3.38;;
84623;SDS011;74849;51.340;12.610;2023-12-20T06:40:12;7.22;;;3.88;;
84623;SDS011;74849;51.340;12.610;2023-12-20T06:42:39;5.30;;;3.28;;
84623;SDS011;74849;51.340;12.610;2023-12-20T06:45:06;6.15;;;3.50;;
84623;SDS011;74849;51.340;12.610;2023-12-20T06:47:33;5.85;;;3.80;;
84623;SDS011;74849;51.340;12.610;2023-12-20T06:50:00;5.22;;;3.28;;
84623;SDS011;74849;51.340;12.610;2023-12-20T06:52:27;5.70;;;3.60;;
84623;SDS011;74849;51.340;12.610;2023-12-20T06:54:54;5.53;;;3.53;;
84623;SDS011;74849;51.340;12.610;2023-12-20T06:57:21;6.65;;;3.90;;
84623;SDS011;74849;51.340;12.610;2023-12-20T06:59:48;8.95;;;4.45;;
84623;SDS011;74849;51.340;12.610;2023-12-20T07:02:15;8.63;;;3.95;;
84623;SDS011;74849;51.340;12.610;2023-12-20T07:04:41;7.63;;;4.05;;
84623;SDS011;74849;51.340;12.610;2023-12-20T07:07:08;5.80;;;2.83;;
84623;SDS011;74849;51.340;12.610;2023-12-20T07:09:35;6.90;;;3.88;;
84623;SDS011;74849;51.340;12.610;2023-12-20T07:12:04;8.50;;;3.75;;
84623;SDS011;74849;51.340;12.610;2023-12-20T07:14:31;7.03;;;3.20;;
84623;SDS011;74849;51.340;12.610;2023-12-20T07:16:58;5.57;;;2.85;;
84623;SDS011;74849;51.340;12.610;2023-12-20T07:19:25;5.78;;;3.15;;
84623;SDS011;74849;51.340;12.610;2023-12-20T07:21:51;6.03;;;3.47;;
84623;SDS011;74849;51.340;12.610;2023-12-20T07:24:19;5.55;;;2.80;;
84623;SDS011;74849;51.340;12.610;2023-12-20T07:26:45;5.30;;;2.75;;
84623;SDS011;74849;51.340;12.610;2023-12-20T07:29:12;5.95;;;2.80;;
84623;SDS011;74849;51.340;12.610;2023-12-20T07:31:39;5.88;;;3.17;;
84623;SDS011;74849;51.340;12.610;2023-12-20T07:34:06;5.30;;;2.83;;
84623;SDS011;74849;51.340;12.610;2023-12-20T07:36:33;5.32;;;2.90;;
84623;SDS011;74849;51.340;12.610;2023-12-20T07:39:00;6.20;;;2.58;;
84623;SDS011;74849;51.340;12.610;2023-12-20T07:41:27;6.68;;;2.22;;
84623;SDS011;74849;51.340;12.610;2023-12-20T07:43:54;2.50;;;1.30;;
84623;SDS011;74849;51.340;12.610;2023-12-20T07:46:22;3.30;;;1.25;;
84623;SDS011;74849;51.340;12.610;2023-12-20T07:48:49;2.78;;;1.40;;
84623;SDS011;74849;51.340;12.610;2023-12-20T07:51:16;2.50;;;1.20;;
84623;SDS011;74849;51.340;12.610;2023-12-20T07:53:43;4.13;;;1.55;;
84623;SDS011;74849;51.340;12.610;2023-12-20T07:56:14;3.58;;;0.80;;
84623;SDS011;74849;51.340;12.610;2023-12-20T07:58:44;1.92;;;1.15;;
84623;SDS011;74849;51.340;12.610;2023-12-20T08:01:11;2.20;;;0.90;;
84623;SDS011;74849;51.340;12.610;2023-12-20T08:03:38;1.58;;;0.90;;
84623;SDS011;74849;51.340;12.610;2023-12-20T08:06:05;3.05;;;1.40;;
84623;SDS011;74849;51.340;12.610;2023-12-20T08:08:32;1.95;;;1.17;;
84623;SDS011;74849;51.340;12.610;2023-12-20T08:10:59;5.32;;;1.50;;
84623;SDS011;74849;51.340;12.610;2023-12-20T08:13:26;2.38;;;1.00;;
84623;SDS011;74849;51.340;12.610;2023-12-20T08:15:53;2.63;;;1.00;;
84623;SDS011;74849;51.340;12.610;2023-12-20T08:18:21;3.92;;;1.40;;
84623;SDS011;74849;51.340;12.610;2023-12-20T08:20:49;4.50;;;1.23;;
84623;SDS011;74849;51.340;12.610;2023-12-20T08:23:18;2.55;;;0.70;;
84623;SDS011;74849;51.340;12.610;2023-12-20T08:25:46;4.85;;;1.10;;
84623;SDS011;74849;51.340;12.610;2023-12-20T08:28:14;1.92;;;0.60;;
84623;SDS011;74849;51.340;12.610;2023-12-20T08:30:41;2.25;;;0.60;;
84623;SDS011;74849;51.340;12.610;2023-12-20T08:33:08;3.85;;;0.80;;
84623;SDS011;74849;51.340;12.610;2023-12-20T08:35:39;1.65;;;0.80;;
84623;SDS011;74849;51.340;12.610;2023-12-20T08:38:06;12.38;;;1.30;;
84623;SDS011;74849;51.340;12.610;2023-12-20T08:40:33;4.10;;;1.25;;
84623;SDS011;74849;51.340;12.610;2023-12-20T08:42:59;3.50;;;0.95;;
84623;SDS011;74849;51.340;12.610;2023-12-20T08:45:26;3.15;;;0.98;;
84623;SDS011;74849;51.340;12.610;2023-12-20T08:47:53;7.55;;;1.08;;
84623;SDS011;74849;51.340;12.610;2023-12-20T08:50:20;1.38;;;0.80;;
84623;SDS011;74849;51.340;12.610;2023-12-20T08:52:47;1.38;;;0.80;;
84623;SDS011;74849;51.340;12.610;2023-12-20T08:55:14;2.08;;;1.17;;
84623;SDS011;74849;51.340;12.610;2023-12-20T08:57:42;1.70;;;0.90;;
84623;SDS011;74849;51.340;12.610;2023-12-20T09:00:09;3.08;;;0.93;;
84623;SDS011;74849;51.340;12.610;2023-12-20T09:02:36;2.92;;;1.08;;
84623;SDS011;74849;51.340;12.610;2023-12-20T09:05:03;1.83;;;0.82;;
84623;SDS011;74849;51.340;12.610;2023-12-20T09:07:30;3.08;;;1.15;;
84623;SDS011;74849;51.340;12.610;2023-12-20T09:09:58;2.20;;;1.27;;
84623;SDS011;74849;51.340;12.610;2023-12-20T09:12:25;3.88;;;1.10;;
84623;SDS011;74849;51.340;12.610;2023-12-20T09:14:52;1.42;;;0.85;;
84623;SDS011;74849;51.340;12.610;2023-12-20T09:17:19;3.47;;;1.08;;
84623;SDS011;74849;51.340;12.610;2023-12-20T09:19:48;4.75;;;1.17;;
84623;SDS011;74849;51.340;12.610;2023-12-20T09:22:15;2.83;;;1.13;;
84623;SDS011;74849;51.340;12.610;2023-12-20T09:24:42;3.75;;;1.58;;
84623;SDS011;74849;51.340;12.610;2023-12-20T09:27:09;3.58;;;1.65;;
84623;SDS011;74849;51.340;12.610;2023-12-20T09:29:36;2.30;;;0.93;;
84623;SDS011;74849;51.340;12.610;2023-12-20T09:32:02;2.90;;;1.10;;
84623;SDS011;74849;51.340;12.610;2023-12-20T09:34:29;2.80;;;0.80;;
84623;SDS011;74849;51.340;12.610;2023-12-20T09:36:56;3.42;;;1.77;;
84623;SDS011;74849;51.340;12.610;2023-12-20T09:39:23;2.83;;;1.08;;
84623;SDS011;74849;51.340;12.610;2023-12-20T09:41:58;6.35;;;1.00;;
84623;SDS011;74849;51.340;12.610;2023-12-20T09:44:28;3.97;;;1.52;;
84623;SDS011;74849;51.340;12.610;2023-12-20T09:46:55;4.50;;;1.17;;
84623;SDS011;74849;51.340;12.610;2023-12-20T09:49:23;2.08;;;1.10;;
84623;SDS011;74849;51.340;12.610;2023-12-20T09:51:50;2.70;;;0.88;;
84623;SDS011;74849;51.340;12.610;2023-12-20T09:54:18;1.55;;;1.25;;
84623;SDS011;74849;51.340;12.610;2023-12-20T09:56:45;4.57;;;1.23;;
84623;SDS011;74849;51.340;12.610;2023-12-20T09:59:12;4.00;;;1.00;;
84623;SDS011;74849;51.340;12.610;2023-12-20T10:01:40;3.60;;;1.90;;
84623;SDS011;74849;51.340;12.610;2023-12-20T10:04:08;6.45;;;1.50;;
84623;SDS011;74849;51.340;12.610;2023-12-20T10:06:41;2.80;;;1.65;;
84623;SDS011;74849;51.340;12.610;2023-12-20T10:09:11;2.88;;;1.20;;
84623;SDS011;74849;51.340;12.610;2023-12-20T10:11:39;1.73;;;0.93;;
84623;SDS011;74849;51.340;12.610;2023-12-20T10:14:06;3.97;;;1.27;;
84623;SDS011;74849;51.340;12.610;2023-12-20T10:16:33;3.95;;;1.75;;
84623;SDS011;74849;51.340;12.610;2023-12-20T10:19:00;1.73;;;1.15;;
84623;SDS011;74849;51.340;12.610;2023-12-20T10:21:28;5.03;;;1.83;;
84623;SDS011;74849;51.340;12.610;2023-12-20T10:23:55;4.18;;;1.88;;
84623;SDS011;74849;51.340;12.610;2023-12-20T10:26:24;5.22;;;1.92;;
84623;SDS011;74849;51.340;12.610;2023-12-20T10:28:55;6.65;;;2.25;;
84623;SDS011;74849;51.340;12.610;2023-12-20T10:31:26;3.63;;;1.50;;
84623;SDS011;74849;51.340;12.610;2023-12-20T10:33:55;7.35;;;1.90;;
84623;SDS011;74849;51.340;12.610;2023-12-20T10:36:26;4.32;;;1.70;;
84623;SDS011;74849;51.340;12.610;2023-12-20T10:38:57;4.38;;;1.77;;
84623;SDS011;74849;51.340;12.610;2023-12-20T10:43:59;3.95;;;1.38;;
84623;SDS011;74849;51.340;12.610;2023-12-20T10:46:27;2.70;;;1.45;;
84623;SDS011;74849;51.340;12.610;2023-12-20T10:48:55;5.63;;;1.58;;
84623;SDS011;74849;51.340;12.610;2023-12-20T10:51:23;2.42;;;1.52;;
84623;SDS011;74849;51.340;12.610;2023-12-20T10:53:52;2.90;;;1.85;;
84623;SDS011;74849;51.340;12.610;2023-12-20T10:56:22;3.95;;;1.35;;
84623;SDS011;74849;51.340;12.610;2023-12-20T10:58:52;7.68;;;1.75;;
84623;SDS011;74849;51.340;12.610;2023-12-20T11:01:19;3.13;;;1.55;;
84623;SDS011;74849;51.340;12.610;2023-12-20T11:03:49;2.97;;;1.08;;
84623;SDS011;74849;51.340;12.610;2023-12-20T11:14:25;3.35;;;0.95;;
84623;SDS011;74849;51.340;12.610;2023-12-20T11:17:09;1.83;;;1.08;;
84623;SDS011;74849;51.340;12.610;2023-12-20T11:22:24;3.40;;;0.70;;
84623;SDS011;74849;51.340;12.610;2023-12-20T11:24:52;2.45;;;0.70;;
84623;SDS011;74849;51.340;12.610;2023-12-20T11:27:19;4.20;;;0.80;;
84623;SDS011;74849;51.340;12.610;2023-12-20T11:29:52;3.55;;;1.27;;
84623;SDS011;74849;51.340;12.610;2023-12-20T11:34:56;2.97;;;1.10;;
84623;SDS011;74849;51.340;12.610;2023-12-20T11:37:28;1.42;;;0.60;;
84623;SDS011;74849;51.340;12.610;2023-12-20T11:40:01;1.73;;;0.70;;
84623;SDS011;74849;51.340;12.610;2023-12-20T11:42:33;2.97;;;1.08;;
84623;SDS011;74849;51.340;12.610;2023-12-20T11:45:15;3.70;;;0.70;;
84623;SDS011;74849;51.340;12.610;2023-12-20T11:47:46;2.42;;;1.10;;
84623;SDS011;74849;51.340;12.610;2023-12-20T11:50:16;1.98;;;0.77;;
84623;SDS011;74849;51.340;12.610;2023-12-20T11:52:43;0.80;;;0.50;;
84623;SDS011;74849;51.340;12.610;2023-12-20T11:55:10;2.22;;;1.05;;
84623;SDS011;74849;51.340;12.610;2023-12-20T11:57:37;3.20;;;0.80;;
84623;SDS011;74849;51.340;12.610;2023-12-20T12:00:04;2.60;;;0.68;;
84623;SDS011;74849;51.340;12.610;2023-12-20T12:02:38;2.95;;;0.70;;
84623;SDS011;74849;51.340;12.610;2023-12-20T12:05:05;2.38;;;0.90;;
84623;SDS011;74849;51.340;12.610;2023-12-20T12:07:33;5.90;;;0.90;;
84623;SDS011;74849;51.340;12.610;2023-12-20T12:10:00;7.57;;;1.00;;
84623;SDS011;74849;51.340;12.610;2023-12-20T12:12:29;3.72;;;1.00;;
84623;SDS011;74849;51.340;12.610;2023-12-20T12:14:56;2.33;;;0.98;;
84623;SDS011;74849;51.340;12.610;2023-12-20T12:17:23;1.85;;;0.80;;
84623;SDS011;74849;51.340;12.610;2023-12-20T12:19:51;2.58;;;0.90;;
84623;SDS011;74849;51.340;12.610;2023-12-20T12:22:29;4.47;;;0.93;;
84623;SDS011;74849;51.340;12.610;2023-12-20T12:24:58;4.85;;;1.45;;
84623;SDS011;74849;51.340;12.610;2023-12-20T12:27:27;4.65;;;1.08;;
84623;SDS011;74849;51.340;12.610;2023-12-20T12:30:00;4.75;;;1.60;;
84623;SDS011;74849;51.340;12.610;2023-12-20T12:32:29;5.82;;;1.50;;
84623;SDS011;74849;51.340;12.610;2023-12-20T12:34:58;3.72;;;1.42;;
84623;SDS011;74849;51.340;12.610;2023-12-20T12:37:24;4.88;;;2.55;;
84623;SDS011;74849;51.340;12.610;2023-12-20T12:39:55;5.68;;;1.40;;
84623;SDS011;74849;51.340;12.610;2023-12-20T12:42:22;4.18;;;1.75;;
84623;SDS011;74849;51.340;12.610;2023-12-20T12:44:54;5.68;;;1.40;;
84623;SDS011;74849;51.340;12.610;2023-12-20T12:47:22;6.57;;;2.35;;
84623;SDS011;74849;51.340;12.610;2023-12-20T12:49:49;4.93;;;1.05;;
84623;SDS011;74849;51.340;12.610;2023-12-20T12:52:17;6.15;;;1.42;;
84623;SDS011;74849;51.340;12.610;2023-12-20T12:54:44;1.45;;;0.65;;
84623;SDS011;74849;51.340;12.610;2023-12-20T12:57:11;2.60;;;0.63;;
84623;SDS011;74849;51.340;12.610;2023-12-20T12:59:39;4.85;;;1.20;;
84623;SDS011;74849;51.340;12.610;2023-12-20T13:02:06;1.92;;;0.70;;
84623;SDS011;74849;51.340;12.610;2023-12-20T13:04:34;2.45;;;0.85;;
84623;SDS011;74849;51.340;12.610;2023-12-20T13:07:00;1.88;;;0.80;;
84623;SDS011;74849;51.340;12.610;2023-12-20T13:09:27;3.60;;;0.90;;
84623;SDS011;74849;51.340;12.610;2023-12-20T13:11:54;2.03;;;0.60;;
84623;SDS011;74849;51.340;12.610;2023-12-20T13:14:21;2.30;;;0.98;;
84623;SDS011;74849;51.340;12.610;2023-12-20T13:16:48;2.05;;;1.15;;
84623;SDS011;74849;51.340;12.610;2023-12-20T13:19:15;1.90;;;0.90;;
84623;SDS011;74849;51.340;12.610;2023-12-20T13:21:42;3.60;;;1.00;;
84623;SDS011;74849;51.340;12.610;2023-12-20T13:24:09;2.75;;;0.70;;
84623;SDS011;74849;51.340;12.610;2023-12-20T13:26:35;4.25;;;1.35;;
84623;SDS011;74849;51.340;12.610;2023-12-20T13:29:03;2.65;;;0.73;;
84623;SDS011;74849;51.340;12.610;2023-12-20T13:31:30;2.00;;;0.93;;
84623;SDS011;74849;51.340;12.610;2023-12-20T13:33:57;3.03;;;1.17;;
84623;SDS011;74849;51.340;12.610;2023-12-20T13:36:24;3.30;;;0.93;;
84623;SDS011;74849;51.340;12.610;2023-12-20T13:38:50;2.67;;;0.70;;
84623;SDS011;74849;51.340;12.610;2023-12-20T13:41:17;4.82;;;1.20;;
84623;SDS011;74849;51.340;12.610;2023-12-20T13:43:44;2.60;;;0.68;;
84623;SDS011;74849;51.340;12.610;2023-12-20T13:46:11;2.65;;;1.02;;
84623;SDS011;74849;51.340;12.610;2023-12-20T13:48:39;2.35;;;0.90;;
84623;SDS011;74849;51.340;12.610;2023-12-20T13:51:07;2.15;;;0.70;;
84623;SDS011;74849;51.340;12.610;2023-12-20T13:53:34;2.95;;;0.88;;
84623;SDS011;74849;51.340;12.610;2023-12-20T13:56:01;3.03;;;0.85;;
84623;SDS011;74849;51.340;12.610;2023-12-20T13:58:28;2.40;;;1.30;;
84623;SDS011;74849;51.340;12.610;2023-12-20T14:00:54;3.97;;;0.88;;
84623;SDS011;74849;51.340;12.610;2023-12-20T14:03:21;1.42;;;0.65;;
84623;SDS011;74849;51.340;12.610;2023-12-20T14:05:48;3.33;;;1.15;;
84623;SDS011;74849;51.340;12.610;2023-12-20T14:08:15;1.25;;;0.77;;
84623;SDS011;74849;51.340;12.610;2023-12-20T14:10:42;2.38;;;1.15;;
84623;SDS011;74849;51.340;12.610;2023-12-20T14:13:09;1.73;;;0.63;;
84623;SDS011;74849;51.340;12.610;2023-12-20T14:15:36;2.53;;;0.80;;
84623;SDS011;74849;51.340;12.610;2023-12-20T14:18:04;2.00;;;1.10;;
84623;SDS011;74849;51.340;12.610;2023-12-20T14:20:34;1.58;;;0.57;;
84623;SDS011;74849;51.340;12.610;2023-12-20T14:23:05;3.13;;;1.23;;
84623;SDS011;74849;51.340;12.610;2023-12-20T14:25:32;15.00;;;4.15;;
84623;SDS011;74849;51.340;12.610;2023-12-20T14:28:00;2.28;;;1.73;;
84623;SDS011;74849;51.340;12.610;2023-12-20T14:30:27;4.78;;;1.67;;
84623;SDS011;74849;51.340;12.610;2023-12-20T14:32:54;10.23;;;4.45;;
84623;SDS011;74849;51.340;12.610;2023-12-20T14:35:21;4.20;;;0.95;;
84623;SDS011;74849;51.340;12.610;2023-12-20T14:37:48;2.03;;;0.80;;
84623;SDS011;74849;51.340;12.610;2023-12-20T14:40:16;2.45;;;0.70;;
84623;SDS011;74849;51.340;12.610;2023-12-20T14:42:43;1.60;;;0.60;;
84623;SDS011;74849;51.340;12.610;2023-12-20T14:45:10;3.42;;;0.95;;
84623;SDS011;74849;51.340;12.610;2023-12-20T14:47:39;2.42;;;1.00;;
84623;SDS011;74849;51.340;12.610;2023-12-20T14:50:06;1.83;;;0.82;;